sensor_id;sensor_type;location;lat;lon;timestamp;pressure;altitude;pressure_sealevel;temperature;humidity
51333;BME280;37417;48.118;11.734;2023-07-30T00:00:29;95125.25;;;19.53;100.00
51333;BME280;37417;48.118;11.734;2023-07-30T00:03:15;95133.91;;;19.38;100.00
51333;BME280;37417;48.118;11.734;2023-07-30T00:06:01;95140.69;;;19.19;100.00
51333;BME280;37417;48.118;11.734;2023-07-30T00:08:46;95162.50;;;18.99;100.00
51333;BME280;37417;48.118;11.734;2023-07-30T00:11:32;95172.47;;;18.82;100.00
51333;BME280;37417;48.118;11.734;2023-07-30T00:14:17;95192.41;;;18.67;100.00
51333;BME280;37417;48.118;11.734;2023-07-30T00:17:04;95176.25;;;18.64;100.00
51333;BME280;37417;48.118;11.734;2023-07-30T00:19:49;95187.31;;;18.61;100.00
51333;BME280;37417;48.118;11.734;2023-07-30T00:22:35;95183.53;;;18.52;100.00
51333;BME280;37417;48.118;11.734;2023-07-30T00:25:21;95191.00;;;18.60;100.00
51333;BME280;37417;48.118;11.734;2023-07-30T00:28:06;95190.19;;;18.59;100.00
51333;BME280;37417;48.118;11.734;2023-07-30T00:30:52;95182.03;;;18.61;100.00
51333;BME280;37417;48.118;11.734;2023-07-30T00:33:38;95191.13;;;18.70;100.00
51333;BME280;37417;48.118;11.734;2023-07-30T00:36:23;95185.31;;;18.73;100.00
51333;BME280;37417;48.118;11.734;2023-07-30T00:39:09;95200.16;;;18.79;100.00
51333;BME280;37417;48.118;11.734;2023-07-30T00:41:56;95194.88;;;18.79;100.00
51333;BME280;37417;48.118;11.734;2023-07-30T00:44:42;95198.84;;;18.77;100.00
51333;BME280;37417;48.118;11.734;2023-07-30T00:47:27;95204.59;;;18.74;100.00
51333;BME280;37417;48.118;11.734;2023-07-30T00:50:14;95198.09;;;18.81;100.00
51333;BME280;37417;48.118;11.734;2023-07-30T00:53:00;95177.38;;;18.68;100.00
51333;BME280;37417;48.118;11.734;2023-07-30T00:55:46;95197.53;;;18.79;100.00
51333;BME280;37417;48.118;11.734;2023-07-30T00:58:32;95195.44;;;18.81;100.00
51333;BME280;37417;48.118;11.734;2023-07-30T01:01:18;95197.53;;;18.79;100.00
51333;BME280;37417;48.118;11.734;2023-07-30T01:04:04;95191.97;;;18.76;100.00
51333;BME280;37417;48.118;11.734;2023-07-30T01:06:49;95199.94;;;18.81;100.00
51333;BME280;37417;48.118;11.734;2023-07-30T01:09:35;95184.84;;;18.76;100.00
51333;BME280;37417;48.118;11.734;2023-07-30T01:12:21;95184.63;;;18.83;100.00
51333;BME280;37417;48.118;11.734;2023-07-30T01:15:09;95177.44;;;18.78;100.00
51333;BME280;37417;48.118;11.734;2023-07-30T01:17:55;95182.94;;;18.72;100.00
51333;BME280;37417;48.118;11.734;2023-07-30T01:20:40;95184.97;;;18.64;100.00
51333;BME280;37417;48.118;11.734;2023-07-30T01:23:26;95187.81;;;18.58;100.00
51333;BME280;37417;48.118;11.734;2023-07-30T01:26:27;95197.00;;;18.50;100.00
51333;BME280;37417;48.118;11.734;2023-07-30T01:29:23;95206.47;;;18.46;100.00
51333;BME280;37417;48.118;11.734;2023-07-30T01:32:11;95198.25;;;18.43;100.00
51333;BME280;37417;48.118;11.734;2023-07-30T01:34:57;95197.66;;;18.35;100.00
51333;BME280;37417;48.118;11.734;2023-07-30T01:37:45;95194.47;;;18.33;100.00
51333;BME280;37417;48.118;11.734;2023-07-30T01:40:32;95203.88;;;18.24;100.00
51333;BME280;37417;48.118;11.734;2023-07-30T01:43:18;95179.88;;;18.26;100.00
51333;BME280;37417;48.118;11.734;2023-07-30T01:46:04;95191.75;;;18.23;100.00
51333;BME280;37417;48.118;11.734;2023-07-30T01:48:50;95193.94;;;18.31;100.00
51333;BME280;37417;48.118;11.734;2023-07-30T01:51:35;95195.19;;;18.24;100.00
51333;BME280;37417;48.118;11.734;2023-07-30T01:54:21;95196.22;;;18.23;100.00
51333;BME280;37417;48.118;11.734;2023-07-30T01:57:07;95197.03;;;18.23;100.00
51333;BME280;37417;48.118;11.734;2023-07-30T01:59:53;95205.53;;;18.30;100.00
51333;BME280;37417;48.118;11.734;2023-07-30T02:02:38;95200.25;;;18.30;100.00
51333;BME280;37417;48.118;11.734;2023-07-30T02:05:24;95206.78;;;18.23;100.00
51333;BME280;37417;48.118;11.734;2023-07-30T02:08:10;95196.03;;;18.29;100.00
51333;BME280;37417;48.118;11.734;2023-07-30T02:10:59;95208.66;;;18.27;100.00
51333;BME280;37417;48.118;11.734;2023-07-30T02:13:45;95198.16;;;18.32;100.00
51333;BME280;37417;48.118;11.734;2023-07-30T02:16:31;95198.59;;;18.24;100.00
51333;BME280;37417;48.118;11.734;2023-07-30T02:19:16;95196.50;;;18.26;100.00
51333;BME280;37417;48.118;11.734;2023-07-30T02:22:02;95195.03;;;18.35;100.00
51333;BME280;37417;48.118;11.734;2023-07-30T02:24:48;95193.19;;;18.36;100.00
51333;BME280;37417;48.118;11.734;2023-07-30T02:27:33;95185.53;;;18.39;100.00
51333;BME280;37417;48.118;11.734;2023-07-30T02:30:19;95184.06;;;18.49;100.00
51333;BME280;37417;48.118;11.734;2023-07-30T02:33:05;95183.22;;;18.48;100.00
51333;BME280;37417;48.118;11.734;2023-07-30T02:35:50;95189.34;;;18.49;100.00
51333;BME280;37417;48.118;11.734;2023-07-30T02:38:36;95186.72;;;18.54;100.00
51333;BME280;37417;48.118;11.734;2023-07-30T02:41:22;95177.25;;;18.58;100.00
51333;BME280;37417;48.118;11.734;2023-07-30T02:44:07;95185.06;;;18.48;100.00
51333;BME280;37417;48.118;11.734;2023-07-30T02:46:53;95193.41;;;18.34;100.00
51333;BME280;37417;48.118;11.734;2023-07-30T02:49:38;95192.16;;;18.15;100.00
51333;BME280;37417;48.118;11.734;2023-07-30T02:52:24;95192.56;;;18.02;100.00
51333;BME280;37417;48.118;11.734;2023-07-30T02:55:10;95203.78;;;18.14;100.00
51333;BME280;37417;48.118;11.734;2023-07-30T02:57:55;95206.41;;;18.14;100.00
51333;BME280;37417;48.118;11.734;2023-07-30T03:00:41;95204.69;;;18.25;100.00
51333;BME280;37417;48.118;11.734;2023-07-30T03:03:27;95215.09;;;18.36;100.00
51333;BME280;37417;48.118;11.734;2023-07-30T03:06:12;95211.50;;;18.48;100.00
51333;BME280;37417;48.118;11.734;2023-07-30T03:08:59;95208.06;;;18.47;100.00
51333;BME280;37417;48.118;11.734;2023-07-30T03:11:45;95215.88;;;18.64;100.00
51333;BME280;37417;48.118;11.734;2023-07-30T03:14:31;95210.78;;;18.57;100.00
51333;BME280;37417;48.118;11.734;2023-07-30T03:17:16;95221.69;;;18.66;100.00
51333;BME280;37417;48.118;11.734;2023-07-30T03:20:02;95226.19;;;18.65;100.00
51333;BME280;37417;48.118;11.734;2023-07-30T03:22:49;95232.09;;;18.46;100.00
51333;BME280;37417;48.118;11.734;2023-07-30T03:25:35;95242.19;;;18.54;100.00
51333;BME280;37417;48.118;11.734;2023-07-30T03:28:20;95267.25;;;18.24;100.00
51333;BME280;37417;48.118;11.734;2023-07-30T03:31:06;95266.66;;;18.17;100.00
51333;BME280;37417;48.118;11.734;2023-07-30T03:33:52;95281.94;;;17.93;100.00
51333;BME280;37417;48.118;11.734;2023-07-30T03:36:37;95299.78;;;17.69;100.00
51333;BME280;37417;48.118;11.734;2023-07-30T03:39:23;95306.09;;;17.68;100.00
51333;BME280;37417;48.118;11.734;2023-07-30T03:42:09;95304.19;;;17.80;100.00
51333;BME280;37417;48.118;11.734;2023-07-30T03:44:54;95305.66;;;17.71;100.00
51333;BME280;37417;48.118;11.734;2023-07-30T03:47:40;95308.06;;;17.73;100.00
51333;BME280;37417;48.118;11.734;2023-07-30T03:50:26;95310.25;;;17.64;100.00
51333;BME280;37417;48.118;11.734;2023-07-30T03:53:11;95316.91;;;17.50;100.00
51333;BME280;37417;48.118;11.734;2023-07-30T03:55:57;95317.09;;;17.43;100.00
51333;BME280;37417;48.118;11.734;2023-07-30T03:58:42;95328.69;;;17.42;100.00
51333;BME280;37417;48.118;11.734;2023-07-30T04:01:28;95332.81;;;17.38;100.00
51333;BME280;37417;48.118;11.734;2023-07-30T04:04:15;95332.59;;;17.40;100.00
51333;BME280;37417;48.118;11.734;2023-07-30T04:07:01;95339.13;;;17.37;100.00
51333;BME280;37417;48.118;11.734;2023-07-30T04:09:47;95338.09;;;17.38;100.00
51333;BME280;37417;48.118;11.734;2023-07-30T04:12:33;95343.63;;;17.37;100.00
51333;BME280;37417;48.118;11.734;2023-07-30T04:15:18;95356.47;;;17.50;100.00
51333;BME280;37417;48.118;11.734;2023-07-30T04:18:04;95343.03;;;17.51;100.00
51333;BME280;37417;48.118;11.734;2023-07-30T04:20:50;95338.91;;;17.55;100.00
51333;BME280;37417;48.118;11.734;2023-07-30T04:23:35;95334.41;;;17.56;100.00
51333;BME280;37417;48.118;11.734;2023-07-30T04:26:21;95325.00;;;17.60;100.00
51333;BME280;37417;48.118;11.734;2023-07-30T04:29:06;95328.84;;;17.52;100.00
51333;BME280;37417;48.118;11.734;2023-07-30T04:31:52;95330.91;;;17.67;100.00
51333;BME280;37417;48.118;11.734;2023-07-30T04:34:38;95334.56;;;17.83;100.00
51333;BME280;37417;48.118;11.734;2023-07-30T04:37:24;95323.97;;;18.00;100.00
51333;BME280;37417;48.118;11.734;2023-07-30T04:40:10;95315.63;;;18.08;100.00
51333;BME280;37417;48.118;11.734;2023-07-30T04:42:55;95322.63;;;18.19;100.00
51333;BME280;37417;48.118;11.734;2023-07-30T04:45:42;95295.59;;;18.34;100.00
51333;BME280;37417;48.118;11.734;2023-07-30T04:48:28;95288.00;;;18.37;100.00
51333;BME280;37417;48.118;11.734;2023-07-30T04:51:13;95288.88;;;18.48;100.00
51333;BME280;37417;48.118;11.734;2023-07-30T04:53:59;95283.78;;;18.63;100.00
51333;BME280;37417;48.118;11.734;2023-07-30T04:56:45;95273.56;;;18.72;100.00
51333;BME280;37417;48.118;11.734;2023-07-30T04:59:30;95276.47;;;18.71;100.00
51333;BME280;37417;48.118;11.734;2023-07-30T05:02:18;95276.56;;;18.81;100.00
51333;BME280;37417;48.118;11.734;2023-07-30T05:05:04;95269.13;;;19.10;100.00
51333;BME280;37417;48.118;11.734;2023-07-30T05:07:50;95276.97;;;19.00;100.00
51333;BME280;37417;48.118;11.734;2023-07-30T05:10:36;95271.56;;;19.16;100.00
51333;BME280;37417;48.118;11.734;2023-07-30T05:13:21;95278.69;;;19.16;100.00
51333;BME280;37417;48.118;11.734;2023-07-30T05:16:07;95278.34;;;19.02;100.00
51333;BME280;37417;48.118;11.734;2023-07-30T05:18:53;95279.81;;;18.93;100.00
51333;BME280;37417;48.118;11.734;2023-07-30T05:21:38;95285.22;;;19.03;100.00
51333;BME280;37417;48.118;11.734;2023-07-30T05:24:24;95282.50;;;18.98;100.00
51333;BME280;37417;48.118;11.734;2023-07-30T05:27:10;95283.28;;;18.93;100.00
51333;BME280;37417;48.118;11.734;2023-07-30T05:29:55;95288.31;;;18.95;100.00
51333;BME280;37417;48.118;11.734;2023-07-30T05:32:41;95271.69;;;19.37;100.00
51333;BME280;37417;48.118;11.734;2023-07-30T05:35:27;95281.69;;;19.62;100.00
51333;BME280;37417;48.118;11.734;2023-07-30T05:38:12;95283.19;;;20.63;100.00
51333;BME280;37417;48.118;11.734;2023-07-30T05:40:58;95266.53;;;21.33;100.00
51333;BME280;37417;48.118;11.734;2023-07-30T05:43:44;95267.56;;;21.22;100.00
51333;BME280;37417;48.118;11.734;2023-07-30T05:46:29;95261.72;;;21.61;100.00
51333;BME280;37417;48.118;11.734;2023-07-30T05:49:15;95269.97;;;21.39;100.00
51333;BME280;37417;48.118;11.734;2023-07-30T05:52:00;95262.53;;;21.16;100.00
51333;BME280;37417;48.118;11.734;2023-07-30T05:54:46;95263.59;;;20.94;100.00
51333;BME280;37417;48.118;11.734;2023-07-30T05:57:32;95267.56;;;21.58;100.00
51333;BME280;37417;48.118;11.734;2023-07-30T06:00:17;95272.31;;;21.66;100.00
51333;BME280;37417;48.118;11.734;2023-07-30T06:03:03;95253.53;;;21.06;100.00
51333;BME280;37417;48.118;11.734;2023-07-30T06:05:49;95260.97;;;21.30;100.00
51333;BME280;37417;48.118;11.734;2023-07-30T06:08:34;95267.16;;;22.10;100.00
51333;BME280;37417;48.118;11.734;2023-07-30T06:11:20;95264.63;;;21.59;100.00
51333;BME280;37417;48.118;11.734;2023-07-30T06:14:06;95264.13;;;21.47;100.00
51333;BME280;37417;48.118;11.734;2023-07-30T06:16:53;95266.53;;;21.08;100.00
51333;BME280;37417;48.118;11.734;2023-07-30T06:19:39;95256.19;;;21.32;100.00
51333;BME280;37417;48.118;11.734;2023-07-30T06:22:24;95260.72;;;22.22;100.00
51333;BME280;37417;48.118;11.734;2023-07-30T06:25:10;95245.84;;;22.21;100.00
51333;BME280;37417;48.118;11.734;2023-07-30T06:27:55;95256.91;;;21.73;100.00
51333;BME280;37417;48.118;11.734;2023-07-30T06:30:44;95251.16;;;22.26;100.00
51333;BME280;37417;48.118;11.734;2023-07-30T06:33:29;95253.38;;;21.98;100.00
51333;BME280;37417;48.118;11.734;2023-07-30T06:36:15;95266.28;;;23.19;100.00
51333;BME280;37417;48.118;11.734;2023-07-30T06:39:01;95259.31;;;22.84;100.00
51333;BME280;37417;48.118;11.734;2023-07-30T06:41:46;95261.84;;;23.67;100.00
51333;BME280;37417;48.118;11.734;2023-07-30T06:44:32;95265.88;;;23.60;100.00
51333;BME280;37417;48.118;11.734;2023-07-30T06:47:18;95259.88;;;22.81;100.00
51333;BME280;37417;48.118;11.734;2023-07-30T06:50:05;95273.69;;;22.83;100.00
51333;BME280;37417;48.118;11.734;2023-07-30T06:52:50;95264.22;;;22.07;100.00
51333;BME280;37417;48.118;11.734;2023-07-30T06:55:36;95268.03;;;22.50;100.00
51333;BME280;37417;48.118;11.734;2023-07-30T06:58:22;95264.94;;;22.28;100.00
51333;BME280;37417;48.118;11.734;2023-07-30T07:01:07;95257.44;;;22.45;100.00
51333;BME280;37417;48.118;11.734;2023-07-30T07:03:53;95266.22;;;22.90;100.00
51333;BME280;37417;48.118;11.734;2023-07-30T07:06:39;95270.72;;;23.23;100.00
51333;BME280;37417;48.118;11.734;2023-07-30T07:09:24;95264.63;;;22.89;100.00
51333;BME280;37417;48.118;11.734;2023-07-30T07:12:10;95267.63;;;23.45;100.00
51333;BME280;37417;48.118;11.734;2023-07-30T07:14:56;95275.25;;;22.94;100.00
51333;BME280;37417;48.118;11.734;2023-07-30T07:17:43;95276.50;;;23.02;100.00
51333;BME280;37417;48.118;11.734;2023-07-30T07:20:29;95261.75;;;23.19;96.89
51333;BME280;37417;48.118;11.734;2023-07-30T07:23:15;95269.66;;;23.24;97.78
51333;BME280;37417;48.118;11.734;2023-07-30T07:26:00;95267.13;;;22.70;99.30
51333;BME280;37417;48.118;11.734;2023-07-30T07:28:46;95271.66;;;23.38;97.29
51333;BME280;37417;48.118;11.734;2023-07-30T07:31:32;95263.59;;;24.68;93.36
51333;BME280;37417;48.118;11.734;2023-07-30T07:34:17;95270.00;;;24.00;95.05
51333;BME280;37417;48.118;11.734;2023-07-30T07:37:03;95266.50;;;22.88;95.52
51333;BME280;37417;48.118;11.734;2023-07-30T07:39:49;95269.13;;;24.10;97.12
51333;BME280;37417;48.118;11.734;2023-07-30T07:42:35;95274.13;;;23.63;96.17
51333;BME280;37417;48.118;11.734;2023-07-30T07:45:20;95275.31;;;23.76;97.96
51333;BME280;37417;48.118;11.734;2023-07-30T07:48:06;95278.28;;;23.74;96.38
51333;BME280;37417;48.118;11.734;2023-07-30T07:50:52;95265.97;;;23.20;96.03
51333;BME280;37417;48.118;11.734;2023-07-30T07:53:38;95271.34;;;22.76;99.29
51333;BME280;37417;48.118;11.734;2023-07-30T07:56:24;95271.06;;;22.78;100.00
51333;BME280;37417;48.118;11.734;2023-07-30T07:59:09;95276.72;;;22.16;100.00
51333;BME280;37417;48.118;11.734;2023-07-30T08:01:55;95272.47;;;22.65;99.14
51333;BME280;37417;48.118;11.734;2023-07-30T08:04:41;95277.94;;;24.29;94.57
51333;BME280;37417;48.118;11.734;2023-07-30T08:07:26;95273.22;;;24.21;89.45
51333;BME280;37417;48.118;11.734;2023-07-30T08:10:12;95287.06;;;23.46;90.61
51333;BME280;37417;48.118;11.734;2023-07-30T08:12:57;95267.56;;;22.82;94.95
51333;BME280;37417;48.118;11.734;2023-07-30T08:15:43;95277.44;;;22.32;98.76
51333;BME280;37417;48.118;11.734;2023-07-30T08:18:29;95282.09;;;21.86;100.00
51333;BME280;37417;48.118;11.734;2023-07-30T08:21:14;95280.56;;;22.94;94.73
51333;BME280;37417;48.118;11.734;2023-07-30T08:24:03;95282.97;;;23.54;86.89
51333;BME280;37417;48.118;11.734;2023-07-30T08:26:48;95274.19;;;24.54;82.57
51333;BME280;37417;48.118;11.734;2023-07-30T08:29:34;95281.91;;;25.91;75.94
51333;BME280;37417;48.118;11.734;2023-07-30T08:32:20;95276.63;;;23.49;83.80
51333;BME280;37417;48.118;11.734;2023-07-30T08:35:06;95276.28;;;22.49;92.54
51333;BME280;37417;48.118;11.734;2023-07-30T08:37:52;95259.41;;;22.74;95.94
51333;BME280;37417;48.118;11.734;2023-07-30T08:40:38;95271.53;;;22.90;87.92
51333;BME280;37417;48.118;11.734;2023-07-30T08:43:23;95251.75;;;22.62;86.93
51333;BME280;37417;48.118;11.734;2023-07-30T08:46:09;95253.53;;;24.41;79.42
51333;BME280;37417;48.118;11.734;2023-07-30T08:48:55;95259.16;;;23.96;80.54
51333;BME280;37417;48.118;11.734;2023-07-30T08:51:42;95253.31;;;23.07;82.84
51333;BME280;37417;48.118;11.734;2023-07-30T08:54:30;95263.81;;;22.93;87.33
51333;BME280;37417;48.118;11.734;2023-07-30T08:57:17;95251.47;;;24.56;78.30
51333;BME280;37417;48.118;11.734;2023-07-30T09:00:08;95250.66;;;24.37;74.41
51333;BME280;37417;48.118;11.734;2023-07-30T09:02:56;95254.41;;;24.93;76.71
51333;BME280;37417;48.118;11.734;2023-07-30T09:05:43;95256.50;;;23.67;79.84
51333;BME280;37417;48.118;11.734;2023-07-30T09:08:29;95250.16;;;24.35;75.48
51333;BME280;37417;48.118;11.734;2023-07-30T09:11:17;95246.06;;;24.43;67.46
51333;BME280;37417;48.118;11.734;2023-07-30T09:14:03;95237.41;;;26.50;61.16
51333;BME280;37417;48.118;11.734;2023-07-30T09:16:56;95235.56;;;25.03;67.00
51333;BME280;37417;48.118;11.734;2023-07-30T09:19:42;95232.25;;;25.11;71.59
51333;BME280;37417;48.118;11.734;2023-07-30T09:22:33;95238.03;;;25.78;68.50
51333;BME280;37417;48.118;11.734;2023-07-30T09:25:21;95231.66;;;24.20;65.83
51333;BME280;37417;48.118;11.734;2023-07-30T09:28:07;95224.41;;;24.82;66.63
51333;BME280;37417;48.118;11.734;2023-07-30T09:31:06;95227.69;;;24.41;65.67
51333;BME280;37417;48.118;11.734;2023-07-30T09:33:52;95214.97;;;25.22;64.08
51333;BME280;37417;48.118;11.734;2023-07-30T09:36:38;95220.63;;;25.21;63.45
51333;BME280;37417;48.118;11.734;2023-07-30T09:39:26;95211.56;;;25.63;62.63
51333;BME280;37417;48.118;11.734;2023-07-30T09:42:11;95224.53;;;25.09;59.70
51333;BME280;37417;48.118;11.734;2023-07-30T09:44:58;95222.97;;;26.24;61.28
51333;BME280;37417;48.118;11.734;2023-07-30T09:47:52;95216.19;;;27.43;55.97
51333;BME280;37417;48.118;11.734;2023-07-30T09:50:38;95209.59;;;25.55;57.78
51333;BME280;37417;48.118;11.734;2023-07-30T09:53:24;95222.66;;;25.56;60.64
51333;BME280;37417;48.118;11.734;2023-07-30T09:56:10;95217.09;;;25.39;59.58
51333;BME280;37417;48.118;11.734;2023-07-30T09:58:56;95214.25;;;25.63;59.20
51333;BME280;37417;48.118;11.734;2023-07-30T10:01:44;95206.28;;;25.30;59.47
51333;BME280;37417;48.118;11.734;2023-07-30T10:04:32;95205.88;;;25.23;57.70
51333;BME280;37417;48.118;11.734;2023-07-30T10:07:22;95211.69;;;26.13;55.87
51333;BME280;37417;48.118;11.734;2023-07-30T10:10:09;95211.09;;;25.61;57.04
51333;BME280;37417;48.118;11.734;2023-07-30T10:12:59;95219.16;;;26.02;57.16
51333;BME280;37417;48.118;11.734;2023-07-30T10:15:46;95222.63;;;24.77;56.67
51333;BME280;37417;48.118;11.734;2023-07-30T10:18:42;95228.91;;;25.65;58.18
51333;BME280;37417;48.118;11.734;2023-07-30T10:21:28;95209.44;;;24.86;58.00
51333;BME280;37417;48.118;11.734;2023-07-30T10:24:17;95210.03;;;25.16;60.09
51333;BME280;37417;48.118;11.734;2023-07-30T10:27:09;95206.88;;;24.95;61.80
51333;BME280;37417;48.118;11.734;2023-07-30T10:30:31;95223.03;;;24.09;60.84
51333;BME280;37417;48.118;11.734;2023-07-30T10:33:17;95223.81;;;23.33;62.70
51333;BME280;37417;48.118;11.734;2023-07-30T10:36:03;95249.63;;;22.04;64.90
51333;BME280;37417;48.118;11.734;2023-07-30T10:38:49;95256.03;;;21.93;71.22
51333;BME280;37417;48.118;11.734;2023-07-30T10:41:36;95252.75;;;22.22;69.49
51333;BME280;37417;48.118;11.734;2023-07-30T10:47:14;95249.22;;;23.20;68.18
51333;BME280;37417;48.118;11.734;2023-07-30T10:50:01;95244.09;;;25.05;60.12
51333;BME280;37417;48.118;11.734;2023-07-30T10:52:48;95240.00;;;26.78;56.31
51333;BME280;37417;48.118;11.734;2023-07-30T10:55:34;95235.91;;;25.48;59.38
51333;BME280;37417;48.118;11.734;2023-07-30T10:58:20;95238.81;;;25.00;59.11
51333;BME280;37417;48.118;11.734;2023-07-30T11:01:07;95230.06;;;25.46;58.50
51333;BME280;37417;48.118;11.734;2023-07-30T11:03:53;95217.13;;;26.35;56.61
51333;BME280;37417;48.118;11.734;2023-07-30T11:06:39;95219.22;;;27.82;52.91
51333;BME280;37417;48.118;11.734;2023-07-30T11:09:29;95250.59;;;26.19;54.58
51333;BME280;37417;48.118;11.734;2023-07-30T11:12:15;95219.00;;;26.71;55.77
51333;BME280;37417;48.118;11.734;2023-07-30T11:15:06;95233.56;;;26.01;56.89
51333;BME280;37417;48.118;11.734;2023-07-30T11:17:52;95219.56;;;25.35;59.89
51333;BME280;37417;48.118;11.734;2023-07-30T11:20:40;95223.69;;;26.65;56.90
51333;BME280;37417;48.118;11.734;2023-07-30T11:23:25;95220.50;;;27.22;53.95
51333;BME280;37417;48.118;11.734;2023-07-30T11:26:19;95224.09;;;26.09;54.84
51333;BME280;37417;48.118;11.734;2023-07-30T11:29:18;95222.94;;;26.37;56.54
51333;BME280;37417;48.118;11.734;2023-07-30T11:32:04;95229.28;;;25.59;55.60
51333;BME280;37417;48.118;11.734;2023-07-30T11:34:50;95234.47;;;26.10;54.28
51333;BME280;37417;48.118;11.734;2023-07-30T11:37:36;95229.03;;;26.65;51.96
51333;BME280;37417;48.118;11.734;2023-07-30T11:40:25;95208.78;;;26.51;51.73
51333;BME280;37417;48.118;11.734;2023-07-30T11:43:11;95215.75;;;26.74;50.27
51333;BME280;37417;48.118;11.734;2023-07-30T11:46:14;95227.81;;;25.66;54.37
51333;BME280;37417;48.118;11.734;2023-07-30T11:49:26;95222.38;;;25.44;53.49
51333;BME280;37417;48.118;11.734;2023-07-30T11:52:12;95210.47;;;26.46;51.39
51333;BME280;37417;48.118;11.734;2023-07-30T11:55:04;95218.78;;;26.31;49.96
51333;BME280;37417;48.118;11.734;2023-07-30T11:57:50;95207.50;;;26.48;49.65
51333;BME280;37417;48.118;11.734;2023-07-30T12:00:37;95219.53;;;25.96;52.19
51333;BME280;37417;48.118;11.734;2023-07-30T12:03:23;95250.28;;;25.19;58.89
51333;BME280;37417;48.118;11.734;2023-07-30T12:06:10;95247.16;;;25.91;63.90
51333;BME280;37417;48.118;11.734;2023-07-30T12:08:56;95262.00;;;27.11;66.12
51333;BME280;37417;48.118;11.734;2023-07-30T12:12:01;95251.63;;;31.02;50.46
51333;BME280;37417;48.118;11.734;2023-07-30T12:17:35;95246.09;;;33.56;45.68
51333;BME280;37417;48.118;11.734;2023-07-30T12:20:21;95248.56;;;33.92;40.97
51333;BME280;37417;48.118;11.734;2023-07-30T12:23:07;95241.34;;;35.83;38.79
51333;BME280;37417;48.118;11.734;2023-07-30T12:25:52;95252.09;;;36.75;36.63
51333;BME280;37417;48.118;11.734;2023-07-30T12:28:38;95256.78;;;32.96;39.23
51333;BME280;37417;48.118;11.734;2023-07-30T12:31:24;95237.31;;;34.92;37.45
51333;BME280;37417;48.118;11.734;2023-07-30T12:34:12;95249.22;;;35.26;35.87
51333;BME280;37417;48.118;11.734;2023-07-30T12:36:58;95242.72;;;36.42;35.05
51333;BME280;37417;48.118;11.734;2023-07-30T12:39:45;95251.34;;;35.79;35.16
51333;BME280;37417;48.118;11.734;2023-07-30T12:42:30;95258.91;;;33.43;37.93
51333;BME280;37417;48.118;11.734;2023-07-30T12:45:17;95273.31;;;31.72;41.04
51333;BME280;37417;48.118;11.734;2023-07-30T12:48:03;95261.78;;;33.50;38.75
51333;BME280;37417;48.118;11.734;2023-07-30T12:50:49;95265.25;;;33.94;36.85
51333;BME280;37417;48.118;11.734;2023-07-30T12:53:34;95275.31;;;29.44;45.65
51333;BME280;37417;48.118;11.734;2023-07-30T12:56:20;95281.44;;;31.18;43.79
51333;BME280;37417;48.118;11.734;2023-07-30T12:59:06;95292.50;;;28.48;50.47
51333;BME280;37417;48.118;11.734;2023-07-30T13:01:51;95266.00;;;29.59;47.96
51333;BME280;37417;48.118;11.734;2023-07-30T13:04:37;95267.13;;;29.14;49.69
51333;BME280;37417;48.118;11.734;2023-07-30T13:07:23;95272.59;;;26.30;58.99
51333;BME280;37417;48.118;11.734;2023-07-30T13:10:09;95278.03;;;27.56;54.68
51333;BME280;37417;48.118;11.734;2023-07-30T13:12:55;95270.78;;;28.93;55.26
51333;BME280;37417;48.118;11.734;2023-07-30T13:15:40;95271.59;;;31.55;44.33
51333;BME280;37417;48.118;11.734;2023-07-30T13:18:26;95262.56;;;33.94;41.93
51333;BME280;37417;48.118;11.734;2023-07-30T13:21:12;95256.50;;;34.17;38.72
51333;BME280;37417;48.118;11.734;2023-07-30T13:23:57;95251.91;;;35.65;36.83
51333;BME280;37417;48.118;11.734;2023-07-30T13:26:43;95247.44;;;34.95;35.82
51333;BME280;37417;48.118;11.734;2023-07-30T13:29:29;95255.72;;;29.52;47.41
51333;BME280;37417;48.118;11.734;2023-07-30T13:32:15;95243.91;;;33.33;40.44
51333;BME280;37417;48.118;11.734;2023-07-30T13:35:00;95257.59;;;33.25;41.34
51333;BME280;37417;48.118;11.734;2023-07-30T13:37:46;95267.44;;;33.17;40.80
51333;BME280;37417;48.118;11.734;2023-07-30T13:40:32;95262.16;;;31.62;43.21
51333;BME280;37417;48.118;11.734;2023-07-30T13:43:17;95289.88;;;27.77;52.08
51333;BME280;37417;48.118;11.734;2023-07-30T13:46:03;95294.56;;;26.13;59.91
51333;BME280;37417;48.118;11.734;2023-07-30T13:48:49;95280.00;;;25.91;65.06
51333;BME280;37417;48.118;11.734;2023-07-30T13:51:34;95293.00;;;25.52;67.57
51333;BME280;37417;48.118;11.734;2023-07-30T13:54:20;95297.25;;;24.82;71.51
51333;BME280;37417;48.118;11.734;2023-07-30T13:57:06;95305.72;;;23.99;83.15
51333;BME280;37417;48.118;11.734;2023-07-30T13:59:52;95295.47;;;23.58;94.23
51333;BME280;37417;48.118;11.734;2023-07-30T14:02:38;95385.81;;;19.83;100.00
51333;BME280;37417;48.118;11.734;2023-07-30T14:05:24;95433.75;;;19.27;100.00
51333;BME280;37417;48.118;11.734;2023-07-30T14:08:10;95465.41;;;18.73;100.00
51333;BME280;37417;48.118;11.734;2023-07-30T14:10:55;95496.91;;;19.72;100.00
51333;BME280;37417;48.118;11.734;2023-07-30T14:13:43;95505.13;;;20.03;100.00
51333;BME280;37417;48.118;11.734;2023-07-30T14:16:28;95489.03;;;21.09;100.00
51333;BME280;37417;48.118;11.734;2023-07-30T14:19:14;95447.50;;;21.41;100.00
51333;BME280;37417;48.118;11.734;2023-07-30T14:22:00;95421.97;;;23.50;100.00
51333;BME280;37417;48.118;11.734;2023-07-30T14:24:46;95400.03;;;25.74;100.00
51333;BME280;37417;48.118;11.734;2023-07-30T14:27:31;95360.81;;;26.16;100.00
51333;BME280;37417;48.118;11.734;2023-07-30T14:30:17;95359.63;;;25.43;100.00